Time;durP1;ratioP1;P1;durP2;ratioP2;P2;SDS_P1;SDS_P2;PMS_P1;PMS_P2;Temp;Humidity;BMP_temperature;BMP_pressure;BME280_temperature;BME280_humidity;BME280_pressure;Samples;Min_cycle;Max_cycle;Signal;HPM_P1;HPM_P2
2022/03/13 00:00:49;;;;;;;9.23;4.72;;;;;;;-8.60;63.39;94364.16;5082073;28;20028;-42
2022/03/13 00:03:16;;;;;;;10.60;5.57;;;;;;;-8.80;64.04;94339.97;5084063;28;20051;-43
2022/03/13 00:05:48;;;;;;;12.30;6.68;;;;;;;-8.84;64.44;94358.00;5090118;28;20028;-43
2022/03/13 00:08:23;;;;;;;22.80;12.73;;;;;;;-8.78;64.67;94355.63;5089620;28;20111;-45
2022/03/13 00:10:55;;;;;;;38.45;20.60;;;;;;;-8.73;64.18;94352.50;5081068;28;20082;-44
2022/03/13 00:13:21;;;;;;;82.70;34.28;;;;;;;-8.69;64.91;94345.94;5069771;28;20024;-44
2022/03/13 00:15:48;;;;;;;73.50;27.60;;;;;;;-8.88;63.74;94357.28;5078997;28;20012;-44
2022/03/13 00:18:14;;;;;;;26.80;14.25;;;;;;;-8.77;63.96;94359.81;5089713;28;20038;-44
2022/03/13 00:20:40;;;;;;;44.03;20.80;;;;;;;-8.81;63.32;94351.06;5090046;28;20026;-43
2022/03/13 00:23:06;;;;;;;35.85;17.92;;;;;;;-8.80;63.86;94339.22;5089892;28;20024;-43
2022/03/13 00:25:32;;;;;;;37.55;18.23;;;;;;;-8.75;62.94;94357.50;5089576;28;20012;-43
2022/03/13 00:27:58;;;;;;;32.20;17.38;;;;;;;-8.79;62.73;94357.53;5089678;28;20082;-44
2022/03/13 00:30:23;;;;;;;55.25;23.05;;;;;;;-8.71;62.82;94350.94;5089599;28;20027;-46
2022/03/13 00:32:49;;;;;;;46.97;21.42;;;;;;;-8.75;62.56;94354.81;5089699;28;20024;-45
2022/03/13 00:35:15;;;;;;;49.83;20.63;;;;;;;-8.93;64.00;94343.59;5089762;28;20031;-43
2022/03/13 00:37:41;;;;;;;34.05;18.80;;;;;;;-8.89;63.75;94352.34;5089851;28;20031;-44
2022/03/13 00:40:07;;;;;;;31.20;17.48;;;;;;;-9.12;64.77;94345.00;5092442;28;20011;-45
2022/03/13 00:42:32;;;;;;;44.30;21.75;;;;;;;-9.10;64.81;94345.34;5110150;28;20072;-44
2022/03/13 00:44:58;;;;;;;50.42;22.52;;;;;;;-9.00;64.04;94341.00;5110803;28;20513;-45
2022/03/13 00:47:24;;;;;;;42.22;18.45;;;;;;;-9.04;64.17;94341.06;5113671;28;20044;-48
2022/03/13 00:49:50;;;;;;;30.45;15.60;;;;;;;-9.18;64.79;94345.84;5113711;28;20408;-47
2022/03/13 00:52:17;;;;;;;26.63;13.13;;;;;;;-9.02;64.10;94352.13;5113273;28;20072;-47
2022/03/13 00:54:42;;;;;;;23.88;12.65;;;;;;;-9.16;64.50;94346.97;5113625;28;20415;-48
2022/03/13 00:57:08;;;;;;;34.83;18.02;;;;;;;-9.33;64.38;94345.25;5113005;28;20043;-47
2022/03/13 00:59:34;;;;;;;59.08;24.23;;;;;;;-9.39;64.31;94346.84;5113293;28;20019;-48
2022/03/13 01:01:59;;;;;;;54.75;24.10;;;;;;;-9.35;63.96;94342.22;5113500;28;20032;-46
2022/03/13 01:04:25;;;;;;;44.50;22.55;;;;;;;-9.13;63.26;94332.00;5072678;28;20127;-47
2022/03/13 01:06:51;;;;;;;61.90;24.23;;;;;;;-9.24;62.92;94326.03;5072459;28;20556;-47
2022/03/13 01:09:17;;;;;;;49.78;20.92;;;;;;;-9.23;62.95;94330.25;5072355;28;20031;-47
2022/03/13 01:11:42;;;;;;;32.53;14.85;;;;;;;-9.47;64.22;94314.13;5089160;28;20092;-48
2022/03/13 01:14:08;;;;;;;26.88;13.38;;;;;;;-9.46;64.16;94328.22;5092456;28;20493;-47
2022/03/13 01:16:37;;;;;;;21.48;11.77;;;;;;;-9.39;63.97;94328.13;5092872;28;20030;-50
2022/03/13 01:19:03;;;;;;;19.85;10.73;;;;;;;-9.64;64.55;94325.78;5092771;28;20039;-49
2022/03/13 01:21:30;;;;;;;28.48;12.73;;;;;;;-9.44;63.95;94318.66;5092661;28;20031;-48
2022/03/13 01:23:55;;;;;;;28.70;14.18;;;;;;;-9.59;64.97;94316.53;5092712;28;20035;-49
2022/03/13 01:26:21;;;;;;;25.50;15.30;;;;;;;-9.63;64.61;94311.25;5092301;28;20028;-48
2022/03/13 01:28:46;;;;;;;31.33;16.48;;;;;;;-9.49;64.37;94308.41;5092637;28;20131;-48
2022/03/13 01:31:12;;;;;;;48.42;21.17;;;;;;;-9.81;64.23;94275.94;5092545;28;20409;-48
2022/03/13 01:33:37;;;;;;;39.13;21.67;;;;;;;-9.47;64.65;94306.09;5092199;28;20020;-49
2022/03/13 01:36:03;;;;;;;32.10;16.23;;;;;;;-9.72;64.71;94304.88;5091401;28;20410;-49
2022/03/13 01:38:32;;;;;;;35.38;16.60;;;;;;;-9.72;65.10;94307.53;5092259;28;20020;-48
2022/03/13 01:40:57;;;;;;;10.52;7.47;;;;;;;-9.93;65.03;94308.50;5091783;28;20477;-48
2022/03/13 01:43:23;;;;;;;13.02;8.82;;;;;;;-9.97;65.36;94313.13;5092249;28;20033;-48
2022/03/13 01:45:48;;;;;;;19.98;10.98;;;;;;;-9.99;64.85;94312.78;5091794;28;20497;-46
2022/03/13 01:48:14;;;;;;;24.70;12.95;;;;;;;-9.89;65.24;94314.56;5092248;28;20024;-46
2022/03/13 01:50:40;;;;;;;26.33;12.02;;;;;;;-9.78;64.70;94311.78;5092143;28;20485;-45
2022/03/13 01:53:08;;;;;;;21.45;9.45;;;;;;;-9.63;64.26;94316.59;5091908;28;20012;-44
2022/03/13 01:55:33;;;;;;;22.77;10.02;;;;;;;-9.77;64.74;94306.06;5073652;28;20016;-47
2022/03/13 01:57:58;;;;;;;23.85;13.25;;;;;;;-9.87;64.56;94312.25;5091610;28;20044;-45
2022/03/13 02:00:26;;;;;;;26.90;11.73;;;;;;;-10.07;65.19;94306.00;5091972;28;20044;-47
2022/03/13 02:02:52;;;;;;;22.45;12.68;;;;;;;-9.93;65.95;94313.09;5084687;28;20067;-48
2022/03/13 02:05:34;;;;;;;27.10;13.80;;;;;;;-9.84;64.76;94316.81;5071496;28;20028;-49
2022/03/13 02:08:05;;;;;;;21.90;12.07;;;;;;;-9.75;65.13;94309.09;5071540;28;20024;-48
2022/03/13 02:10:30;;;;;;;23.45;12.13;;;;;;;-9.79;65.18;94313.72;5071578;28;20524;-48
2022/03/13 02:12:56;;;;;;;29.00;10.82;;;;;;;-10.08;65.27;94313.25;5071171;28;20064;-48
2022/03/13 02:15:22;;;;;;;14.85;8.95;;;;;;;-10.15;66.70;94310.66;5081578;28;20039;-48
2022/03/13 02:17:47;;;;;;;20.88;9.25;;;;;;;-9.89;65.32;94313.81;5091355;28;20569;-49
2022/03/13 02:20:20;;;;;;;16.58;9.82;;;;;;;-9.80;64.18;94314.09;5091321;28;20034;-47
2022/03/13 02:22:47;;;;;;;20.58;10.57;;;;;;;-9.83;63.84;94312.25;5091568;28;20082;-47
2022/03/13 02:25:22;;;;;;;19.73;11.95;;;;;;;-10.12;65.26;94311.78;5091296;28;20089;-48
2022/03/13 02:27:47;;;;;;;21.80;11.80;;;;;;;-9.98;65.78;94311.63;5091107;28;20055;-50
2022/03/13 02:30:13;;;;;;;36.42;16.80;;;;;;;-9.96;64.88;94308.56;5091155;28;20027;-48
2022/03/13 02:32:39;;;;;;;35.33;13.88;;;;;;;-10.23;64.60;94305.78;5091296;28;20422;-47
2022/03/13 02:35:05;;;;;;;25.38;10.88;;;;;;;-9.90;64.33;94309.63;5091156;28;20020;-47
2022/03/13 02:37:37;;;;;;;26.17;12.40;;;;;;;-9.78;63.55;94311.78;5091195;28;20085;-49
2022/03/13 02:40:04;;;;;;;20.63;11.73;;;;;;;-9.74;63.67;94305.25;5093460;28;20020;-46
2022/03/13 02:42:30;;;;;;;19.48;11.18;;;;;;;-9.88;64.13;94310.75;5111525;28;20038;-47
2022/03/13 02:44:55;;;;;;;21.85;10.27;;;;;;;-9.78;63.94;94315.22;5111432;28;20020;-48
2022/03/13 02:47:20;;;;;;;13.38;6.68;;;;;;;-9.79;63.46;94300.38;5111408;28;20511;-48
2022/03/13 02:49:46;;;;;;;14.38;8.20;;;;;;;-9.70;64.06;94310.56;5111508;28;20473;-49
2022/03/13 02:52:11;;;;;;;17.55;9.98;;;;;;;-9.84;63.85;94306.13;5111427;28;20019;-49
2022/03/13 02:54:37;;;;;;;23.20;11.25;;;;;;;-10.08;64.87;94312.50;5110987;28;20085;-48
2022/03/13 02:57:03;;;;;;;17.73;9.40;;;;;;;-10.13;65.66;94304.94;5110931;28;20044;-48
2022/03/13 02:59:29;;;;;;;18.98;8.98;;;;;;;-10.07;67.12;94303.34;5111218;28;20023;-50
2022/03/13 03:01:54;;;;;;;14.48;7.38;;;;;;;-9.93;66.45;94303.19;5111261;28;20407;-45
2022/03/13 03:04:22;;;;;;;11.38;6.15;;;;;;;-9.93;66.82;94302.41;5091446;28;20031;-45
2022/03/13 03:07:03;;;;;;;17.15;5.75;;;;;;;-9.76;66.77;94304.91;5090799;28;20097;-45
2022/03/13 03:09:31;;;;;;;12.25;6.32;;;;;;;-9.81;65.81;94294.63;5090185;28;20539;-46
2022/03/13 03:11:58;;;;;;;11.60;6.70;;;;;;;-9.59;65.35;94300.50;5085385;28;20444;-45
2022/03/13 03:14:23;;;;;;;11.23;7.05;;;;;;;-9.65;65.34;94294.84;5090517;28;20117;-45
2022/03/13 03:16:49;;;;;;;14.15;7.32;;;;;;;-9.55;65.02;94299.31;5090336;28;20447;-43
2022/03/13 03:19:14;;;;;;;10.73;7.03;;;;;;;-9.60;65.27;94297.09;5090620;28;20111;-43
2022/03/13 03:21:40;;;;;;;28.15;16.05;;;;;;;-9.45;66.28;94306.44;5090670;28;20035;-43
2022/03/13 03:24:33;;;;;;;46.65;18.88;;;;;;;-9.29;65.46;94300.53;5090581;28;20039;-43
2022/03/13 03:26:59;;;;;;;41.38;19.77;;;;;;;-9.33;64.94;94286.44;5087015;28;20036;-43
2022/03/13 03:29:25;;;;;;;44.28;21.70;;;;;;;-9.13;63.84;94298.00;5090497;28;20097;-43
2022/03/13 03:31:52;;;;;;;47.22;21.90;;;;;;;-9.31;62.77;94300.16;5090582;28;20023;-44
2022/03/13 03:34:20;;;;;;;34.78;18.35;;;;;;;-9.20;62.41;94290.06;5090361;28;20119;-43
2022/03/13 03:36:51;;;;;;;33.78;17.33;;;;;;;-9.20;62.08;94298.09;5090562;28;20016;-45
2022/03/13 03:39:18;;;;;;;33.05;16.15;;;;;;;-9.27;62.18;94295.53;5090345;28;20024;-44
2022/03/13 03:41:46;;;;;;;41.42;17.10;;;;;;;-9.32;62.83;94290.63;5107037;28;20081;-46
2022/03/13 03:44:12;;;;;;;34.70;18.17;;;;;;;-9.66;64.90;94280.00;5110616;28;20134;-47
2022/03/13 03:46:39;;;;;;;42.28;18.80;;;;;;;-9.66;64.07;94287.25;5110280;28;20669;-47
2022/03/13 03:49:04;;;;;;;30.42;16.45;;;;;;;-9.62;64.73;94285.28;5110636;28;20110;-47
2022/03/13 03:51:30;;;;;;;26.30;13.02;;;;;;;-9.47;64.34;94283.94;5110634;28;20165;-47
2022/03/13 03:53:55;;;;;;;32.53;15.38;;;;;;;-9.57;64.32;94280.25;5110215;28;20034;-46
2022/03/13 03:56:21;;;;;;;26.98;13.20;;;;;;;-9.67;64.65;94275.78;5110309;28;20137;-47
2022/03/13 03:58:46;;;;;;;38.88;14.88;;;;;;;-9.77;64.51;94276.69;5110311;28;20512;-47
2022/03/13 04:01:12;;;;;;;108.82;38.88;;;;;;;-9.80;65.01;94274.78;5110085;28;20089;-45
2022/03/13 04:03:38;;;;;;;39.35;13.15;;;;;;;-9.80;65.29;94277.47;5096853;28;20082;-46
2022/03/13 04:06:03;;;;;;;27.40;13.38;;;;;;;-9.80;66.17;94274.03;5089919;28;20646;-47
2022/03/13 04:08:29;;;;;;;22.33;11.25;;;;;;;-9.65;66.02;94270.78;5089746;28;20031;-43
2022/03/13 04:10:55;;;;;;;23.83;11.10;;;;;;;-9.70;65.92;94271.22;5089784;28;20032;-43
2022/03/13 04:13:20;;;;;;;27.13;13.93;;;;;;;-9.56;66.31;94268.41;5089612;28;20039;-44
2022/03/13 04:15:46;;;;;;;27.75;13.43;;;;;;;-9.45;66.04;94273.59;5089822;28;20020;-43
2022/03/13 04:18:14;;;;;;;34.30;16.95;;;;;;;-9.37;65.10;94267.00;5089821;28;20031;-46
2022/03/13 04:20:40;;;;;;;29.45;17.02;;;;;;;-9.35;65.21;94273.47;5092216;28;20063;-46
2022/03/13 04:23:05;;;;;;;23.85;14.27;;;;;;;-9.33;65.59;94273.06;5093602;28;20082;-43
2022/03/13 04:25:31;;;;;;;17.02;9.05;;;;;;;-9.31;64.68;94260.81;5093359;28;20089;-47
2022/03/13 04:27:57;;;;;;;14.70;8.57;;;;;;;-9.40;65.53;94271.22;5093851;28;20031;-46
2022/03/13 04:30:23;;;;;;;69.75;28.17;;;;;;;-9.37;66.25;94270.44;5093540;28;20116;-40
2022/03/13 04:32:49;;;;;;;71.68;33.92;;;;;;;-9.25;64.98;94271.06;5093352;28;20070;-40
2022/03/13 04:35:14;;;;;;;111.15;41.75;;;;;;;-9.38;64.52;94252.91;5093423;28;20089;-40
2022/03/13 04:37:39;;;;;;;99.35;36.13;;;;;;;-9.24;64.57;94277.91;5093298;28;20093;-42
2022/03/13 04:40:05;;;;;;;80.78;33.15;;;;;;;-9.22;64.29;94243.53;5096358;28;20072;-41
2022/03/13 04:42:31;;;;;;;62.25;27.88;;;;;;;-8.98;63.67;94261.88;5113808;28;20532;-43
2022/03/13 04:44:56;;;;;;;60.22;26.98;;;;;;;-9.10;64.19;94262.44;5113544;28;20519;-43
2022/03/13 04:47:22;;;;;;;104.05;45.90;;;;;;;-9.10;64.79;94267.03;5113427;28;20528;-42
2022/03/13 04:49:47;;;;;;;76.22;37.42;;;;;;;-8.91;64.49;94261.78;5113702;28;20027;-47
2022/03/13 04:52:13;;;;;;;89.65;40.60;;;;;;;-9.07;65.17;94252.88;5113446;28;20076;-48
2022/03/13 04:54:38;;;;;;;77.72;40.15;;;;;;;-8.82;64.85;94262.03;5113361;28;20032;-47
2022/03/13 04:57:04;;;;;;;46.65;20.60;;;;;;;-8.75;65.28;94266.50;5113129;28;20039;-48
2022/03/13 04:59:29;;;;;;;54.63;24.75;;;;;;;-8.68;64.96;94261.78;5095332;28;20088;-47
2022/03/13 05:01:55;;;;;;;42.75;24.08;;;;;;;-8.66;65.37;94259.47;5113543;28;20034;-50
2022/03/13 05:04:20;;;;;;;49.95;23.33;;;;;;;-8.92;66.44;94264.88;5093349;28;20505;-49
2022/03/13 05:06:46;;;;;;;51.30;21.88;;;;;;;-8.86;66.98;94269.34;5091850;28;20040;-48
2022/03/13 05:09:11;;;;;;;25.48;14.10;;;;;;;-8.68;67.10;94258.34;5092454;28;20043;-49
2022/03/13 05:11:40;;;;;;;25.60;12.35;;;;;;;-8.55;66.76;94262.72;5092943;28;20024;-49
2022/03/13 05:14:05;;;;;;;36.88;17.45;;;;;;;-8.49;66.35;94262.28;5092486;28;20020;-48
2022/03/13 05:16:31;;;;;;;36.75;19.75;;;;;;;-8.37;66.46;94264.34;5092550;28;20027;-47
2022/03/13 05:18:56;;;;;;;47.13;21.17;;;;;;;-8.21;65.50;94267.13;5092561;28;20069;-48
2022/03/13 05:21:22;;;;;;;36.45;19.27;;;;;;;-8.09;65.41;94263.84;5092331;28;20093;-49
2022/03/13 05:23:47;;;;;;;23.23;13.77;;;;;;;-8.13;65.60;94265.81;5092451;28;20020;-48
2022/03/13 05:26:13;;;;;;;29.25;13.95;;;;;;;-7.98;66.28;94275.13;5092392;28;20027;-47
2022/03/13 05:28:38;;;;;;;27.33;13.02;;;;;;;-8.32;66.87;94245.91;5092410;28;20032;-47
2022/03/13 05:31:03;;;;;;;27.38;13.10;;;;;;;-8.14;67.04;94267.00;5092189;28;20024;-49
2022/03/13 05:33:30;;;;;;;19.33;10.80;;;;;;;-8.07;66.80;94272.97;5092178;28;20062;-48
2022/03/13 05:35:56;;;;;;;20.20;10.52;;;;;;;-8.03;66.31;94259.50;5092463;28;20107;-47
2022/03/13 05:38:22;;;;;;;25.73;13.40;;;;;;;-7.91;66.86;94266.97;5092066;28;20024;-47
2022/03/13 05:40:47;;;;;;;24.33;12.43;;;;;;;-7.74;66.59;94279.28;5100880;28;20061;-49
2022/03/13 05:43:13;;;;;;;27.33;14.65;;;;;;;-7.87;66.80;94279.13;5112508;28;20028;-45
2022/03/13 05:45:41;;;;;;;29.73;17.10;;;;;;;-7.81;66.82;94276.72;5112632;28;20098;-47
2022/03/13 05:48:10;;;;;;;9.57;6.97;;;;;;;-7.67;66.91;94279.16;5112782;28;20019;-46
2022/03/13 05:50:36;;;;;;;23.02;12.10;;;;;;;-7.43;66.67;94274.47;5112700;28;20023;-45
2022/03/13 05:53:02;;;;;;;60.65;24.50;;;;;;;-7.27;67.30;94279.88;5112578;28;20400;-45
2022/03/13 05:55:27;;;;;;;84.60;31.83;;;;;;;-7.13;67.14;94284.94;5112135;28;20016;-42
2022/03/13 05:57:54;;;;;;;120.15;46.88;;;;;;;-6.99;66.38;94285.41;5112150;28;20047;-43
2022/03/13 06:00:22;;;;;;;30.33;14.98;;;;;;;-6.80;66.17;94291.91;5101780;28;20039;-43
2022/03/13 06:02:48;;;;;;;39.17;18.70;;;;;;;-6.73;65.19;94285.59;5085448;28;20020;-44
2022/03/13 06:05:17;;;;;;;28.38;12.57;;;;;;;-6.61;64.96;94291.09;5084384;28;20051;-45
2022/03/13 06:07:42;;;;;;;27.95;14.38;;;;;;;-6.63;65.24;94274.63;5091546;28;20049;-44
2022/03/13 06:10:08;;;;;;;29.77;13.77;;;;;;;-6.37;64.67;94300.50;5091437;28;20016;-43
2022/03/13 06:12:35;;;;;;;36.22;18.08;;;;;;;-6.34;64.88;94285.44;5091533;28;20059;-45
2022/03/13 06:15:01;;;;;;;33.47;16.98;;;;;;;-6.04;64.63;94300.47;5091490;28;20092;-47
2022/03/13 06:17:27;;;;;;;16.77;9.40;;;;;;;-5.84;64.79;94301.09;5091598;28;20529;-45
2022/03/13 06:19:55;;;;;;;17.30;9.10;;;;;;;-5.80;63.83;94301.72;5091662;28;20413;-46
2022/03/13 06:22:22;;;;;;;24.77;12.43;;;;;;;-5.53;62.99;94302.19;5091228;28;20076;-47
2022/03/13 06:24:47;;;;;;;23.25;12.82;;;;;;;-5.27;62.34;94301.09;5091511;28;20089;-45
2022/03/13 06:27:13;;;;;;;36.38;16.10;;;;;;;-4.98;61.46;94301.78;5091084;28;20024;-45
2022/03/13 06:29:39;;;;;;;32.83;16.20;;;;;;;-4.80;61.53;94303.97;5091435;28;20020;-45
2022/03/13 06:32:06;;;;;;;33.85;15.27;;;;;;;-4.32;60.50;94303.66;5091484;28;20028;-45
2022/03/13 06:34:31;;;;;;;35.15;18.48;;;;;;;-3.70;58.94;94307.41;5091220;28;20047;-45
2022/03/13 06:36:57;;;;;;;27.48;16.55;;;;;;;-3.01;56.86;94304.66;5091431;28;20020;-45
2022/03/13 06:39:22;;;;;;;30.30;15.73;;;;;;;-2.48;55.07;94301.47;5091009;28;20024;-45
2022/03/13 06:41:49;;;;;;;28.70;15.68;;;;;;;-2.21;53.66;94279.22;5090731;28;20048;-48
2022/03/13 06:44:14;;;;;;;26.27;13.38;;;;;;;-1.70;52.97;94299.16;5090795;28;20020;-46
2022/03/13 06:46:40;;;;;;;22.98;15.10;;;;;;;-0.87;52.06;94306.06;5091089;28;20393;-47
2022/03/13 06:49:05;;;;;;;14.82;8.27;;;;;;;0.12;50.01;94296.84;5091146;28;20028;-45
2022/03/13 06:51:34;;;;;;;24.50;13.68;;;;;;;1.41;45.92;94296.88;5090681;28;20030;-45
2022/03/13 06:53:59;;;;;;;18.73;11.13;;;;;;;2.22;42.59;94284.28;5091088;28;20019;-45
2022/03/13 06:56:25;;;;;;;15.80;8.60;;;;;;;2.33;42.70;94289.13;5090264;28;20417;-46
2022/03/13 06:58:50;;;;;;;18.20;12.30;;;;;;;4.07;41.31;94280.97;5090503;28;20023;-49
2022/03/13 07:01:16;;;;;;;14.20;10.00;;;;;;;5.19;36.58;94281.06;5090887;28;20024;-47
2022/03/13 07:03:42;;;;;;;16.10;10.15;;;;;;;6.26;35.03;94277.19;5079130;28;20094;-45
2022/03/13 07:06:08;;;;;;;22.67;16.27;;;;;;;6.40;34.20;94276.91;5090515;28;20028;-47
2022/03/13 07:08:34;;;;;;;16.67;12.13;;;;;;;7.59;32.51;94271.91;5090800;28;20050;-42
2022/03/13 07:11:01;;;;;;;11.00;7.93;;;;;;;8.49;30.67;94278.94;5079910;28;20060;-42
2022/03/13 07:13:32;;;;;;;9.88;7.13;;;;;;;9.47;29.77;94283.09;5070066;28;20020;-44
2022/03/13 07:16:03;;;;;;;13.63;8.18;;;;;;;10.20;27.86;94278.06;5075718;28;20056;-42
2022/03/13 07:18:29;;;;;;;11.50;8.82;;;;;;;10.10;27.41;94274.91;5105164;28;20552;-43
2022/03/13 07:20:55;;;;;;;13.52;9.80;;;;;;;10.36;26.74;94277.78;5109706;28;20538;-45
2022/03/13 07:23:21;;;;;;;15.88;9.73;;;;;;;11.52;25.17;94277.56;5109666;28;20049;-47
2022/03/13 07:25:48;;;;;;;11.82;9.23;;;;;;;9.16;26.40;94274.22;5109797;28;20076;-44
2022/03/13 07:28:13;;;;;;;12.73;9.32;;;;;;;10.46;27.83;94278.84;5109838;28;20027;-44
2022/03/13 07:30:39;;;;;;;12.27;9.27;;;;;;;11.41;25.04;94280.59;5109495;28;20070;-46
2022/03/13 07:33:04;;;;;;;16.02;9.80;;;;;;;11.97;24.42;94271.84;5088347;28;20020;-50
2022/03/13 07:35:30;;;;;;;24.50;10.05;;;;;;;12.82;23.84;94272.78;5078281;28;20109;-49
2022/03/13 07:37:55;;;;;;;14.50;8.93;;;;;;;13.60;23.40;94276.91;5079042;28;20549;-48
2022/03/13 07:40:20;;;;;;;15.45;10.48;;;;;;;14.06;22.80;94277.81;5079398;28;20024;-52
2022/03/13 07:42:47;;;;;;;13.63;10.10;;;;;;;14.75;21.73;94268.31;5080315;28;20098;-47
2022/03/13 07:45:12;;;;;;;16.60;9.82;;;;;;;14.74;21.13;94267.56;5078650;28;20028;-47
2022/03/13 07:47:38;;;;;;;16.60;9.95;;;;;;;14.29;21.04;94267.53;5071893;28;20058;-49
2022/03/13 07:50:04;;;;;;;11.48;10.27;;;;;;;15.04;21.22;94264.75;5069207;28;20048;-44
2022/03/13 07:52:29;;;;;;;14.93;10.00;;;;;;;15.09;20.59;94263.09;5076168;28;20020;-45
2022/03/13 07:54:55;;;;;;;12.82;10.13;;;;;;;15.22;19.87;94253.78;5091843;28;20405;-44
2022/03/13 07:57:21;;;;;;;15.00;10.05;;;;;;;12.56;20.95;94267.41;5092973;28;20052;-43
2022/03/13 07:59:47;;;;;;;13.75;10.20;;;;;;;9.56;24.45;94263.44;5093512;28;20028;-45
2022/03/13 08:02:14;;;;;;;15.77;11.35;;;;;;;10.75;23.80;94265.28;5093182;28;20031;-44
2022/03/13 08:04:40;;;;;;;13.73;10.45;;;;;;;12.44;23.16;94255.09;5093273;28;20028;-45
2022/03/13 08:07:05;;;;;;;17.90;10.77;;;;;;;13.24;22.14;94262.34;5093154;28;20481;-44
2022/03/13 08:09:31;;;;;;;14.63;11.55;;;;;;;13.93;20.98;94261.31;5093391;28;20024;-47
2022/03/13 08:11:56;;;;;;;15.15;10.98;;;;;;;13.90;21.36;94254.09;5074443;28;20020;-45
2022/03/13 08:14:22;;;;;;;12.55;9.98;;;;;;;14.51;20.49;94249.41;5072850;28;20052;-45
2022/03/13 08:16:47;;;;;;;22.13;11.43;;;;;;;14.55;21.00;94256.09;5072811;28;20025;-47
2022/03/13 08:19:13;;;;;;;12.52;10.15;;;;;;;15.10;19.39;94254.19;5072551;28;20418;-44
2022/03/13 08:21:39;;;;;;;13.93;10.50;;;;;;;14.69;19.51;94249.03;5072377;28;20880;-49
2022/03/13 08:24:07;;;;;;;17.08;10.35;;;;;;;15.17;19.59;94245.09;5072657;28;20035;-47
2022/03/13 08:26:38;;;;;;;17.15;10.57;;;;;;;14.77;20.09;94246.97;5075112;28;20027;-45
2022/03/13 08:29:06;;;;;;;12.43;10.48;;;;;;;15.59;20.29;94236.97;5092135;28;20032;-45
2022/03/13 08:31:33;;;;;;;16.10;10.93;;;;;;;16.19;19.54;94243.56;5091483;28;20054;-48
2022/03/13 08:34:07;;;;;;;15.60;11.02;;;;;;;14.65;18.97;94254.22;5092787;28;20039;-45
2022/03/13 08:36:35;;;;;;;17.80;11.13;;;;;;;11.65;21.96;94252.66;5092204;28;20027;-44
2022/03/13 08:39:01;;;;;;;14.40;10.30;;;;;;;11.81;22.29;94246.03;5092293;28;20039;-45
2022/03/13 08:41:26;;;;;;;16.27;10.68;;;;;;;11.48;22.76;94251.53;5091905;28;20024;-45
2022/03/13 08:43:52;;;;;;;34.38;23.75;;;;;;;12.34;23.26;94248.56;5092088;28;20043;-46
2022/03/13 08:46:17;;;;;;;18.88;13.98;;;;;;;13.74;21.25;94249.78;5091839;28;20024;-47
2022/03/13 08:48:43;;;;;;;12.80;9.82;;;;;;;14.11;21.00;94238.78;5090610;28;20028;-46
2022/03/13 08:51:11;;;;;;;13.88;9.88;;;;;;;14.72;20.07;94231.25;5090207;28;20553;-45
2022/03/13 08:53:37;;;;;;;18.03;8.70;;;;;;;15.06;20.57;94231.56;5090434;28;20081;-45
2022/03/13 08:56:03;;;;;;;11.02;9.07;;;;;;;15.55;19.32;94235.91;5089302;28;20438;-44
2022/03/13 08:58:28;;;;;;;12.13;7.70;;;;;;;14.84;19.39;94237.16;5089452;28;20028;-44
2022/03/13 09:00:56;;;;;;;10.30;8.18;;;;;;;15.17;19.20;94233.97;5089528;28;20047;-45
2022/03/13 09:03:21;;;;;;;8.20;7.32;;;;;;;15.58;18.77;94226.41;5090066;28;20028;-44
2022/03/13 09:05:48;;;;;;;11.68;9.07;;;;;;;16.20;19.24;94226.28;5090780;28;20074;-43
2022/03/13 09:08:14;;;;;;;9.75;7.78;;;;;;;16.30;18.20;94223.63;5091272;28;20020;-45
2022/03/13 09:10:40;;;;;;;17.15;11.88;;;;;;;16.71;18.79;94222.97;5072964;28;20062;-46
2022/03/13 09:13:05;;;;;;;16.10;11.27;;;;;;;17.08;18.68;94204.38;5091422;28;20110;-45
2022/03/13 09:15:31;;;;;;;16.50;11.10;;;;;;;17.78;18.28;94212.91;5091060;28;20024;-44
2022/03/13 09:18:01;;;;;;;13.10;10.45;;;;;;;18.08;17.60;94215.28;5090579;28;20421;-45
2022/03/13 09:20:27;;;;;;;11.40;9.32;;;;;;;18.51;17.40;94218.63;5091283;28;20024;-47
2022/03/13 09:22:53;;;;;;;11.15;8.82;;;;;;;18.55;17.11;94218.94;5090578;28;20554;-45
2022/03/13 09:25:18;;;;;;;14.75;8.80;;;;;;;17.94;15.57;94205.06;5091045;28;20552;-45
2022/03/13 09:27:44;;;;;;;17.80;12.05;;;;;;;18.20;17.03;94218.31;5091106;28;20024;-44
2022/03/13 09:30:11;;;;;;;15.02;9.82;;;;;;;18.82;17.13;94205.63;5091225;28;20024;-43
2022/03/13 09:32:36;;;;;;;12.55;10.13;;;;;;;18.79;17.69;94193.56;5091024;28;20058;-44
2022/03/13 09:35:02;;;;;;;11.18;9.77;;;;;;;19.35;16.51;94208.25;5087845;28;20077;-41
2022/03/13 09:37:28;;;;;;;9.75;8.80;;;;;;;19.38;16.96;94207.06;5090716;28;20020;-41
2022/03/13 09:39:53;;;;;;;12.68;8.85;;;;;;;18.81;15.47;94206.94;5090397;28;20063;-41
2022/03/13 09:42:19;;;;;;;14.27;9.73;;;;;;;19.03;16.37;94208.63;5091042;28;20023;-41
2022/03/13 09:44:44;;;;;;;12.63;9.60;;;;;;;16.95;17.19;94202.66;5089667;28;20032;-41
2022/03/13 09:47:11;;;;;;;12.30;9.98;;;;;;;16.92;18.45;94205.84;5089971;28;20024;-41
2022/03/13 09:49:37;;;;;;;11.82;9.63;;;;;;;17.21;17.81;94199.22;5090102;28;20035;-41
2022/03/13 09:52:03;;;;;;;9.68;8.02;;;;;;;16.83;17.86;94198.13;5072439;28;20020;-41
2022/03/13 09:54:28;;;;;;;14.95;9.88;;;;;;;16.75;17.83;94189.09;5090624;28;20496;-41
2022/03/13 09:56:54;;;;;;;13.75;7.88;;;;;;;16.86;17.51;94194.19;5090393;28;20044;-41
2022/03/13 09:59:20;;;;;;;21.60;10.05;;;;;;;17.01;18.02;94183.63;5090223;28;20048;-41
2022/03/13 10:01:46;;;;;;;17.98;11.38;;;;;;;17.60;18.01;94193.97;5090677;28;20035;-41
2022/03/13 10:04:12;;;;;;;15.75;8.75;;;;;;;17.98;17.53;94185.81;5071289;28;20425;-42
2022/03/13 10:07:03;;;;;;;9.00;7.45;;;;;;;18.20;18.09;94181.97;5067835;28;20082;-41
2022/03/13 10:09:29;;;;;;;8.25;7.03;;;;;;;18.73;16.28;94184.69;5067984;28;20033;-42
2022/03/13 10:12:05;;;;;;;10.18;7.88;;;;;;;18.57;16.24;94182.72;5086164;28;20030;-41
2022/03/13 10:14:31;;;;;;;11.57;8.52;;;;;;;19.77;15.85;94179.03;5088252;28;20040;-42
2022/03/13 10:16:56;;;;;;;13.43;8.57;;;;;;;19.93;15.66;94183.72;5087226;28;20047;-41
2022/03/13 10:19:24;;;;;;;10.13;8.13;;;;;;;19.82;15.55;94181.53;5088442;28;20031;-41
2022/03/13 10:22:19;;;;;;;14.45;9.07;;;;;;;19.95;15.72;94180.31;5087365;28;20524;-42
2022/03/13 10:24:46;;;;;;;10.40;8.80;;;;;;;20.02;15.01;94166.16;5052378;28;20071;-42
2022/03/13 10:27:20;;;;;;;11.27;8.63;;;;;;;18.82;16.36;94169.25;5079424;28;20112;-41
2022/03/13 10:29:48;;;;;;;11.55;7.95;;;;;;;18.15;16.09;94169.75;5089857;28;20024;-41
2022/03/13 10:32:14;;;;;;;9.73;8.48;;;;;;;18.01;17.28;94165.84;5078698;28;20492;-40
2022/03/13 10:34:40;;;;;;;9.05;7.20;;;;;;;17.27;16.60;94166.22;5089589;28;20083;-41
2022/03/13 10:37:05;;;;;;;9.40;7.97;;;;;;;16.74;18.08;94160.44;5088777;28;20063;-41
2022/03/13 10:39:33;;;;;;;14.52;10.55;;;;;;;17.31;16.80;94160.97;5088712;28;20028;-41
2022/03/13 10:42:03;;;;;;;13.30;8.77;;;;;;;17.28;16.17;94159.31;5087401;28;20032;-41
2022/03/13 10:44:36;;;;;;;9.02;7.45;;;;;;;17.34;16.92;94150.72;5088376;28;20043;-41
2022/03/13 10:47:08;;;;;;;11.27;6.95;;;;;;;16.20;17.45;94148.25;5088777;28;20560;-41
2022/03/13 10:49:41;;;;;;;13.88;6.22;;;;;;;15.83;17.29;94149.28;5087190;28;20028;-41
2022/03/13 10:52:36;;;;;;;12.30;7.47;;;;;;;14.97;17.67;94148.72;5088320;28;20024;-41
2022/03/13 10:55:24;;;;;;;8.77;6.80;;;;;;;14.02;19.54;94144.91;5088158;28;20023;-40
2022/03/13 10:57:52;;;;;;;8.53;6.47;;;;;;;13.21;19.75;94149.75;5088371;28;20056;-41
2022/03/13 11:00:18;;;;;;;10.15;6.97;;;;;;;12.62;20.21;94144.09;5089496;28;20499;-40
2022/03/13 11:02:44;;;;;;;8.50;6.43;;;;;;;12.17;20.50;94152.81;5090080;28;20059;-41
2022/03/13 11:05:09;;;;;;;7.28;5.57;;;;;;;11.65;20.97;94144.78;5090650;28;20063;-40
2022/03/13 11:07:35;;;;;;;8.73;6.80;;;;;;;11.40;21.04;94143.59;5090627;28;20028;-40
2022/03/13 11:10:01;;;;;;;10.48;7.95;;;;;;;10.66;22.05;94142.94;5088571;28;20024;-40
2022/03/13 11:12:27;;;;;;;9.10;6.32;;;;;;;10.32;25.39;94144.09;5070345;28;20062;-40
2022/03/13 11:15:00;;;;;;;8.05;6.00;;;;;;;10.61;22.69;94137.53;5070292;28;20028;-40
2022/03/13 11:17:27;;;;;;;9.15;5.82;;;;;;;10.55;21.54;94145.16;5070413;28;20569;-40
2022/03/13 11:19:57;;;;;;;7.53;5.75;;;;;;;10.31;22.15;94137.84;5070286;28;20032;-40